Time;durP1;ratioP1;P1;durP2;ratioP2;P2;SDS_P1;SDS_P2;PMS_P1;PMS_P2;Temp;Humidity;BMP_temperature;BMP_pressure;BME280_temperature;BME280_humidity;BME280_pressure;Samples;Min_cycle;Max_cycle;Signal;HPM_P1;HPM_P2
2023/01/31 00:00:11;;;;;;;;;;;;;;;21.68;21.47;97256.31;5018063;28;1910;-75
2023/01/31 00:02:36;;;;;;;;;;;;;;;22.02;21.09;97257.41;5018127;28;879;-75
2023/01/31 00:05:02;;;;;;;;;;;;;;;21.62;21.57;97263.06;5016699;28;991;-75
2023/01/31 00:07:27;;;;;;;;;;;;;;;21.94;21.19;97254.09;5018160;28;925;-75
2023/01/31 00:09:53;;;;;;;;;;;;;;;21.90;21.31;97253.44;5018228;28;937;-75
2023/01/31 00:12:18;;;;;;;;;;;;;;;21.71;21.48;97244.09;5017971;28;930;-75
2023/01/31 00:14:43;;;;;;;;;;;;;;;22.05;21.10;97245.16;5016252;28;939;-75
2023/01/31 00:17:09;;;;;;;;;;;;;;;22.40;20.58;97247.81;5017567;28;886;-75
2023/01/31 00:19:34;;;;;;;;;;;;;;;21.80;21.69;97252.59;5017339;28;1967;-75
2023/01/31 00:22:00;;;;;;;;;;;;;;;21.65;21.47;97251.56;5017670;28;914;-76
2023/01/31 00:24:25;;;;;;;;;;;;;;;22.14;20.96;97248.06;5017495;28;936;-75
2023/01/31 00:26:55;;;;;;;;;;;;;;;22.32;21.06;97248.09;5017314;28;894;-75
2023/01/31 00:29:24;;;;;;;;;;;;;;;22.44;20.63;97249.25;5000124;28;1375;-74
2023/01/31 00:31:49;;;;;;;;;;;;;;;22.09;21.05;97240.16;5017199;28;885;-75
2023/01/31 00:34:17;;;;;;;;;;;;;;;22.03;21.18;97247.69;4999700;28;1188;-76
2023/01/31 00:36:42;;;;;;;;;;;;;;;22.19;20.93;97244.63;4999093;28;1433;-75
2023/01/31 00:39:08;;;;;;;;;;;;;;;22.29;20.76;97232.06;5017383;28;1902;-75
2023/01/31 00:41:34;;;;;;;;;;;;;;;22.02;21.17;97240.41;5017717;28;926;-75
2023/01/31 00:43:59;;;;;;;;;;;;;;;22.03;21.07;97239.19;4999774;28;1282;-75
2023/01/31 00:46:25;;;;;;;;;;;;;;;22.32;20.70;97239.59;4999709;28;1183;-75
2023/01/31 00:48:50;;;;;;;;;;;;;;;22.18;20.97;97226.03;4999662;28;1090;-75
2023/01/31 00:51:16;;;;;;;;;;;;;;;21.93;21.50;97215.69;4999777;28;990;-75
2023/01/31 00:53:41;;;;;;;;;;;;;;;22.08;21.06;97216.69;4999802;28;903;-75
2023/01/31 00:56:11;;;;;;;;;;;;;;;21.85;21.33;97209.50;4999417;28;1350;-75
2023/01/31 00:58:38;;;;;;;;;;;;;;;22.14;21.03;97199.91;4999334;28;1910;-75
2023/01/31 01:01:07;;;;;;;;;;;;;;;21.93;21.43;97204.38;4999041;28;1375;-75
2023/01/31 01:03:33;;;;;;;;;;;;;;;22.08;21.19;97204.56;4999314;28;1114;-75
2023/01/31 01:05:58;;;;;;;;;;;;;;;22.05;21.33;97205.50;4999822;28;1577;-75
2023/01/31 01:08:24;;;;;;;;;;;;;;;22.36;20.81;97209.06;5017029;28;1098;-75
2023/01/31 01:10:49;;;;;;;;;;;;;;;22.27;21.04;97200.53;5017315;28;909;-75
2023/01/31 01:13:15;;;;;;;;;;;;;;;22.39;20.83;97200.91;5016902;28;909;-75
2023/01/31 01:15:40;;;;;;;;;;;;;;;22.44;20.86;97198.25;5016405;28;1003;-75
2023/01/31 01:18:07;;;;;;;;;;;;;;;21.98;21.23;97200.94;5016617;28;1907;-75
2023/01/31 01:20:33;;;;;;;;;;;;;;;22.52;20.93;97198.69;4999449;28;1068;-76
2023/01/31 01:22:58;;;;;;;;;;;;;;;22.30;21.10;97193.94;4999214;28;1585;-75
2023/01/31 01:25:24;;;;;;;;;;;;;;;22.23;21.24;97188.59;4999225;28;1321;-75
2023/01/31 01:27:49;;;;;;;;;;;;;;;22.04;21.36;97186.94;5016628;28;1018;-75
2023/01/31 01:30:15;;;;;;;;;;;;;;;21.86;21.69;97184.81;5016447;28;874;-75
2023/01/31 01:32:40;;;;;;;;;;;;;;;22.17;21.13;97184.78;5016569;28;944;-75
2023/01/31 01:35:06;;;;;;;;;;;;;;;22.27;21.16;97183.53;5014509;28;1086;-75
2023/01/31 01:37:32;;;;;;;;;;;;;;;22.62;20.95;97180.44;5016322;28;897;-75
2023/01/31 01:39:57;;;;;;;;;;;;;;;22.33;20.99;97181.69;4995516;28;1980;-75
2023/01/31 01:42:23;;;;;;;;;;;;;;;22.47;20.81;97185.16;4997192;28;921;-75
2023/01/31 01:44:50;;;;;;;;;;;;;;;22.29;21.10;97181.03;4995436;28;939;-75
2023/01/31 01:47:29;;;;;;;;;;;;;;;22.37;20.99;97170.19;4995784;28;1102;-75
2023/01/31 01:50:02;;;;;;;;;;;;;;;22.15;21.24;97163.84;4995613;28;959;-75
2023/01/31 01:52:28;;;;;;;;;;;;;;;21.86;21.82;97159.31;4995660;28;865;-75
2023/01/31 01:54:57;;;;;;;;;;;;;;;22.39;21.03;97159.19;4995459;28;1216;-75
2023/01/31 01:57:25;;;;;;;;;;;;;;;22.46;20.75;97166.56;4995370;28;993;-76
2023/01/31 01:59:53;;;;;;;;;;;;;;;22.00;21.55;97163.63;4995493;28;1887;-75
2023/01/31 02:02:19;;;;;;;;;;;;;;;21.65;21.85;97155.31;4995950;28;1201;-75
2023/01/31 02:04:45;;;;;;;;;;;;;;;21.85;21.66;97158.53;4995249;28;972;-75
2023/01/31 02:07:10;;;;;;;;;;;;;;;22.28;21.04;97156.81;4995246;28;913;-75
2023/01/31 02:09:36;;;;;;;;;;;;;;;22.17;21.22;97167.78;4995208;28;1130;-75
2023/01/31 02:12:04;;;;;;;;;;;;;;;22.55;20.77;97169.44;4995349;28;1192;-75
2023/01/31 02:14:29;;;;;;;;;;;;;;;22.40;20.90;97168.47;4995474;28;1095;-75
2023/01/31 02:16:55;;;;;;;;;;;;;;;22.59;20.81;97170.06;4995215;28;1152;-75
2023/01/31 02:19:29;;;;;;;;;;;;;;;22.46;20.77;97172.25;5011437;28;1971;-75
2023/01/31 02:22:05;;;;;;;;;;;;;;;22.36;20.94;97175.06;4993994;28;1163;-75
2023/01/31 02:24:34;;;;;;;;;;;;;;;22.66;20.84;97175.41;4977798;28;916;-75
2023/01/31 02:27:11;;;;;;;;;;;;;;;22.19;21.48;97167.31;4977900;28;1199;-75
2023/01/31 02:29:51;;;;;;;;;;;;;;;22.52;20.75;97165.47;4981711;28;1320;-75
2023/01/31 02:32:36;;;;;;;;;;;;;;;22.37;21.11;97167.34;4981495;28;1188;-75
2023/01/31 02:35:04;;;;;;;;;;;;;;;22.63;20.84;97167.84;4997586;28;1129;-75
2023/01/31 02:37:43;;;;;;;;;;;;;;;22.02;21.33;97169.59;4981485;28;1217;-75
2023/01/31 02:40:16;;;;;;;;;;;;;;;22.47;20.97;97156.81;4981241;28;1915;-75
2023/01/31 02:42:51;;;;;;;;;;;;;;;21.94;21.50;97159.84;4981418;28;1702;-75
2023/01/31 02:45:21;;;;;;;;;;;;;;;22.54;21.15;97153.69;4965245;28;993;-75
2023/01/31 02:47:48;;;;;;;;;;;;;;;22.72;20.65;97144.38;4981238;28;1253;-75
2023/01/31 02:50:19;;;;;;;;;;;;;;;22.13;21.21;97149.38;4993473;28;1877;-75
2023/01/31 02:53:03;;;;;;;;;;;;;;;22.37;20.95;97158.84;4962607;28;1230;-75
2023/01/31 02:58:17;;;;;;;;;;;;;;;22.46;20.92;97160.91;4995351;28;1910;-75
2023/01/31 03:00:44;;;;;;;;;;;;;;;22.41;20.96;97158.69;4995586;28;1438;-75
2023/01/31 03:03:30;;;;;;;;;;;;;;;22.18;21.26;97158.03;4994883;28;1154;-75
2023/01/31 03:05:56;;;;;;;;;;;;;;;22.18;21.29;97152.38;4995104;28;1210;-75
2023/01/31 03:08:22;;;;;;;;;;;;;;;22.48;20.95;97147.03;4994978;28;1123;-75
2023/01/31 03:11:06;;;;;;;;;;;;;;;22.78;20.88;97150.97;4995255;28;1321;-75
2023/01/31 03:13:34;;;;;;;;;;;;;;;21.84;21.47;97151.31;4996651;28;1936;-75
2023/01/31 03:18:49;;;;;;;;;;;;;;;22.59;20.76;97158.72;4996639;28;1981;-75
2023/01/31 03:21:20;;;;;;;;;;;;;;;22.08;21.45;97150.75;4980755;28;1270;-76
2023/01/31 03:23:47;;;;;;;;;;;;;;;22.55;21.16;97152.41;4980525;28;1179;-76
2023/01/31 03:26:12;;;;;;;;;;;;;;;22.63;21.03;97142.31;4980650;28;1124;-76
2023/01/31 03:28:40;;;;;;;;;;;;;;;22.20;21.48;97141.34;4980345;28;1239;-75
2023/01/31 03:31:12;;;;;;;;;;;;;;;22.39;21.26;97147.06;4981249;28;980;-75
2023/01/31 03:33:38;;;;;;;;;;;;;;;22.53;21.02;97143.56;4996567;28;977;-75
2023/01/31 03:36:06;;;;;;;;;;;;;;;22.99;20.52;97140.75;4980510;28;1236;-76
2023/01/31 03:38:36;;;;;;;;;;;;;;;22.52;21.31;97147.69;4996116;28;1911;-75
2023/01/31 03:41:10;;;;;;;;;;;;;;;22.38;21.15;97153.97;5016442;28;923;-75
2023/01/31 03:43:36;;;;;;;;;;;;;;;22.60;20.91;97152.56;4997052;28;1330;-75
2023/01/31 03:46:29;;;;;;;;;;;;;;;22.53;21.27;97143.56;5004345;28;1143;-75
2023/01/31 03:48:54;;;;;;;;;;;;;;;22.47;21.38;97151.13;4977754;28;995;-75
2023/01/31 03:51:21;;;;;;;;;;;;;;;22.60;21.29;97154.63;5010943;28;1139;-75
2023/01/31 03:53:48;;;;;;;;;;;;;;;22.04;21.66;97152.94;4994341;28;1083;-75
2023/01/31 03:56:19;;;;;;;;;;;;;;;22.29;21.34;97152.72;5010511;28;1261;-75
2023/01/31 03:58:46;;;;;;;;;;;;;;;22.13;21.64;97149.38;4979559;28;1906;-76
2023/01/31 04:01:12;;;;;;;;;;;;;;;22.76;20.64;97140.13;5010311;28;1156;-76
2023/01/31 04:03:37;;;;;;;;;;;;;;;22.53;20.83;97143.56;4993911;28;1454;-76
2023/01/31 04:06:03;;;;;;;;;;;;;;;22.14;21.54;97140.41;4993919;28;1213;-76
2023/01/31 04:08:30;;;;;;;;;;;;;;;22.36;21.26;97146.72;4994035;28;1280;-76
2023/01/31 04:11:01;;;;;;;;;;;;;;;22.24;21.69;97153.31;4993778;28;1156;-76
2023/01/31 04:13:27;;;;;;;;;;;;;;;22.26;21.42;97156.47;4993551;28;1228;-76
2023/01/31 04:15:52;;;;;;;;;;;;;;;22.27;21.31;97149.53;4993313;28;806;-76
2023/01/31 04:18:18;;;;;;;;;;;;;;;22.21;21.51;97151.41;4993706;28;1910;-77
2023/01/31 04:20:43;;;;;;;;;;;;;;;21.40;22.59;97155.50;4995282;28;922;-76
2023/01/31 04:23:08;;;;;;;;;;;;;;;21.82;22.18;97148.16;4995426;28;929;-76
2023/01/31 04:25:34;;;;;;;;;;;;;;;21.99;21.83;97162.06;4995393;28;953;-77
2023/01/31 04:27:59;;;;;;;;;;;;;;;21.95;21.70;97161.41;4995739;28;1011;-78
2023/01/31 04:30:25;;;;;;;;;;;;;;;21.93;21.83;97166.75;4996007;28;1060;-78
2023/01/31 04:32:50;;;;;;;;;;;;;;;22.07;21.50;97163.31;4995829;28;1080;-77
2023/01/31 04:35:15;;;;;;;;;;;;;;;21.82;21.91;97170.81;4979774;28;928;-78
2023/01/31 04:37:41;;;;;;;;;;;;;;;22.08;21.73;97170.59;4995778;28;933;-78
2023/01/31 04:40:07;;;;;;;;;;;;;;;22.04;21.67;97164.28;4995476;28;1914;-78
2023/01/31 04:42:32;;;;;;;;;;;;;;;22.30;21.49;97176.94;4995778;28;916;-78
2023/01/31 04:44:58;;;;;;;;;;;;;;;22.48;21.20;97167.66;4995575;28;1009;-77
2023/01/31 04:47:24;;;;;;;;;;;;;;;21.98;21.44;97161.28;4995506;28;1018;-77
2023/01/31 04:49:49;;;;;;;;;;;;;;;21.56;21.99;97177.94;4995183;28;950;-78
2023/01/31 04:52:14;;;;;;;;;;;;;;;21.68;22.22;97188.38;4982569;28;954;-77
2023/01/31 04:54:41;;;;;;;;;;;;;;;22.10;21.59;97191.53;4978220;28;712;-78
2023/01/31 04:57:06;;;;;;;;;;;;;;;22.04;21.63;97186.94;4977904;28;763;-77
2023/01/31 04:59:32;;;;;;;;;;;;;;;22.06;21.54;97190.06;4977610;28;1907;-78
2023/01/31 05:01:57;;;;;;;;;;;;;;;21.91;21.56;97189.09;4977235;28;862;-78
2023/01/31 05:04:25;;;;;;;;;;;;;;;21.99;21.60;97196.03;4977870;28;1009;-78
2023/01/31 05:06:50;;;;;;;;;;;;;;;22.24;21.01;97187.34;4977880;28;885;-78
2023/01/31 05:09:16;;;;;;;;;;;;;;;22.22;20.97;97189.03;4977524;28;928;-78
2023/01/31 05:11:42;;;;;;;;;;;;;;;21.86;21.27;97190.47;4977755;28;943;-78
2023/01/31 05:14:07;;;;;;;;;;;;;;;21.78;21.60;97187.16;4977545;28;952;-78
2023/01/31 05:16:33;;;;;;;;;;;;;;;22.01;21.53;97193.53;4977902;28;891;-78
2023/01/31 05:18:59;;;;;;;;;;;;;;;22.69;20.72;97190.69;4977930;28;1979;-78
2023/01/31 05:21:24;;;;;;;;;;;;;;;22.00;21.41;97191.94;4977598;28;903;-78
2023/01/31 05:23:50;;;;;;;;;;;;;;;21.09;22.47;97193.06;4992787;28;927;-78
2023/01/31 05:26:15;;;;;;;;;;;;;;;21.77;21.53;97194.09;4977957;28;970;-78
2023/01/31 05:28:41;;;;;;;;;;;;;;;22.16;21.06;97203.03;4977512;28;969;-78
2023/01/31 05:31:07;;;;;;;;;;;;;;;22.25;20.95;97203.06;4977610;28;1050;-78
2023/01/31 05:33:32;;;;;;;;;;;;;;;22.02;21.27;97206.44;4977383;28;1006;-78
2023/01/31 05:35:58;;;;;;;;;;;;;;;21.97;21.42;97202.19;4978105;28;999;-77
2023/01/31 05:38:23;;;;;;;;;;;;;;;22.35;20.73;97216.00;4991556;28;1903;-78
2023/01/31 05:40:49;;;;;;;;;;;;;;;22.15;21.08;97204.31;4996197;28;1361;-78
2023/01/31 05:43:14;;;;;;;;;;;;;;;22.18;21.00;97209.03;4996614;28;959;-77
2023/01/31 05:45:40;;;;;;;;;;;;;;;21.67;21.79;97203.78;4997025;28;915;-78
2023/01/31 05:48:05;;;;;;;;;;;;;;;22.47;20.50;97213.50;4994581;28;1021;-78
2023/01/31 05:50:30;;;;;;;;;;;;;;;21.89;21.33;97211.44;4996606;28;900;-78
2023/01/31 05:53:08;;;;;;;;;;;;;;;22.08;21.09;97210.25;4997041;28;1024;-75
2023/01/31 05:55:33;;;;;;;;;;;;;;;22.28;20.64;97207.81;4996759;28;962;-76
2023/01/31 05:57:59;;;;;;;;;;;;;;;21.93;21.07;97209.25;4996245;28;960;-75
2023/01/31 06:00:25;;;;;;;;;;;;;;;22.31;20.73;97212.53;4994436;28;1918;-75
2023/01/31 06:02:50;;;;;;;;;;;;;;;21.78;21.49;97212.66;4998529;28;968;-76
2023/01/31 06:05:16;;;;;;;;;;;;;;;21.79;21.30;97216.25;5000370;28;887;-75
2023/01/31 06:07:41;;;;;;;;;;;;;;;22.24;20.62;97212.84;4998978;28;1076;-75
2023/01/31 06:10:07;;;;;;;;;;;;;;;22.53;20.71;97220.13;5001051;28;853;-76
2023/01/31 06:12:32;;;;;;;;;;;;;;;22.23;20.81;97222.59;5000332;28;1011;-75
2023/01/31 06:14:58;;;;;;;;;;;;;;;22.29;21.04;97215.06;5000129;28;846;-75
2023/01/31 06:17:23;;;;;;;;;;;;;;;22.12;20.97;97222.22;5000426;28;954;-75
2023/01/31 06:19:49;;;;;;;;;;;;;;;22.41;20.44;97232.41;5000255;28;1977;-76
2023/01/31 06:22:14;;;;;;;;;;;;;;;22.25;20.69;97230.63;5000188;28;957;-75
2023/01/31 06:24:40;;;;;;;;;;;;;;;22.21;20.68;97230.75;4998255;28;960;-75
2023/01/31 06:27:05;;;;;;;;;;;;;;;22.43;20.46;97229.88;5000914;28;983;-75
2023/01/31 06:29:31;;;;;;;;;;;;;;;22.26;20.65;97232.97;5000411;28;1004;-75
2023/01/31 06:31:56;;;;;;;;;;;;;;;22.18;20.72;97234.56;5000430;28;910;-75
2023/01/31 06:34:22;;;;;;;;;;;;;;;22.17;20.79;97241.44;5000430;28;1002;-75
2023/01/31 06:36:47;;;;;;;;;;;;;;;22.26;20.41;97249.97;5000283;28;969;-75
2023/01/31 06:39:13;;;;;;;;;;;;;;;22.06;20.86;97236.19;5000334;28;1911;-76
2023/01/31 06:41:38;;;;;;;;;;;;;;;22.09;20.72;97242.97;4997763;28;1013;-75
2023/01/31 06:44:03;;;;;;;;;;;;;;;22.25;20.43;97241.97;4997391;28;1180;-75
2023/01/31 06:46:29;;;;;;;;;;;;;;;22.17;20.60;97252.00;4997625;28;993;-75
2023/01/31 06:48:54;;;;;;;;;;;;;;;22.19;20.42;97255.94;4997415;28;1016;-76
2023/01/31 06:51:20;;;;;;;;;;;;;;;22.42;20.24;97262.31;4997444;28;1352;-75
2023/01/31 06:53:45;;;;;;;;;;;;;;;22.42;20.27;97257.44;4997145;28;986;-75
2023/01/31 06:56:10;;;;;;;;;;;;;;;22.02;20.62;97248.91;4997166;28;1011;-74
2023/01/31 06:58:36;;;;;;;;;;;;;;;22.10;20.63;97258.72;4980706;28;1985;-75
2023/01/31 07:01:08;;;;;;;;;;;;;;;21.84;21.14;97253.25;4997315;28;1023;-75
2023/01/31 07:03:33;;;;;;;;;;;;;;;22.29;20.29;97249.06;4997361;28;958;-75
2023/01/31 07:05:59;;;;;;;;;;;;;;;22.41;20.52;97261.53;4997344;28;1200;-75
2023/01/31 07:08:24;;;;;;;;;;;;;;;22.29;20.47;97260.41;4997328;28;948;-75
2023/01/31 07:10:50;;;;;;;;;;;;;;;22.00;20.62;97265.59;4996966;28;890;-75
2023/01/31 07:13:15;;;;;;;;;;;;;;;22.52;20.01;97269.59;4997886;28;1115;-75
2023/01/31 07:15:41;;;;;;;;;;;;;;;22.73;19.99;97271.50;4999029;28;960;-75
2023/01/31 07:18:06;;;;;;;;;;;;;;;22.83;19.57;97270.25;4999043;28;1274;-75
2023/01/31 07:20:32;;;;;;;;;;;;;;;22.27;20.47;97273.44;4999403;28;1902;-76
2023/01/31 07:22:57;;;;;;;;;;;;;;;22.55;19.78;97272.28;4999263;28;979;-75
2023/01/31 07:25:23;;;;;;;;;;;;;;;22.42;20.00;97267.97;4998385;28;952;-75
2023/01/31 07:27:48;;;;;;;;;;;;;;;21.98;20.65;97273.78;4999024;28;987;-75
2023/01/31 07:30:14;;;;;;;;;;;;;;;22.45;20.30;97272.72;4997772;28;932;-75
2023/01/31 07:32:39;;;;;;;;;;;;;;;22.16;20.46;97278.75;4999138;28;959;-75
2023/01/31 07:35:05;;;;;;;;;;;;;;;22.65;19.94;97264.59;4999086;28;1052;-75
2023/01/31 07:37:30;;;;;;;;;;;;;;;22.31;20.30;97269.22;4999187;28;922;-75
2023/01/31 07:39:56;;;;;;;;;;;;;;;22.09;20.36;97268.47;4998457;28;1971;-75
2023/01/31 07:42:21;;;;;;;;;;;;;;;22.84;19.95;97271.84;4981369;28;999;-75
2023/01/31 07:44:47;;;;;;;;;;;;;;;22.74;19.85;97273.09;4997451;28;1222;-75
2023/01/31 07:47:13;;;;;;;;;;;;;;;22.68;19.68;97274.19;4997726;28;901;-75
2023/01/31 07:49:38;;;;;;;;;;;;;;;22.40;20.13;97276.16;4997513;28;1670;-76
2023/01/31 07:52:04;;;;;;;;;;;;;;;22.42;20.33;97276.47;4997899;28;944;-75
2023/01/31 07:54:29;;;;;;;;;;;;;;;22.26;20.31;97271.88;4998675;28;931;-75
2023/01/31 07:56:54;;;;;;;;;;;;;;;22.42;20.07;97273.66;4997614;28;983;-75
2023/01/31 07:59:20;;;;;;;;;;;;;;;22.56;19.89;97278.72;4997354;28;1903;-75
2023/01/31 08:04:29;;;;;;;;;;;;;;;22.34;20.17;97273.94;4997233;28;915;-75
2023/01/31 08:06:55;;;;;;;;;;;;;;;22.53;19.89;97286.13;4998361;28;1049;-74
2023/01/31 08:09:21;;;;;;;;;;;;;;;22.86;19.82;97286.34;4997355;28;1420;-75
2023/01/31 08:11:46;;;;;;;;;;;;;;;22.49;19.78;97282.66;4997289;28;933;-75
2023/01/31 08:14:12;;;;;;;;;;;;;;;22.58;19.86;97288.34;4998046;28;944;-75
2023/01/31 08:16:38;;;;;;;;;;;;;;;23.00;19.54;97289.84;4995663;28;1012;-75
2023/01/31 08:19:04;;;;;;;;;;;;;;;22.36;19.98;97282.75;4998511;28;1906;-75
2023/01/31 08:21:29;;;;;;;;;;;;;;;22.57;20.20;97303.00;4996944;28;930;-75
2023/01/31 08:23:54;;;;;;;;;;;;;;;22.30;20.17;97298.81;4997065;28;960;-75
2023/01/31 08:26:21;;;;;;;;;;;;;;;22.92;19.74;97303.56;4996721;28;899;-75
2023/01/31 08:28:46;;;;;;;;;;;;;;;22.65;19.68;97315.63;4997109;28;921;-75
2023/01/31 08:31:13;;;;;;;;;;;;;;;22.35;20.27;97315.22;4997628;28;982;-75
2023/01/31 08:33:38;;;;;;;;;;;;;;;22.38;19.99;97307.00;4997496;28;1029;-75
2023/01/31 08:36:10;;;;;;;;;;;;;;;22.03;20.60;97310.00;4997723;28;1024;-75
2023/01/31 08:38:36;;;;;;;;;;;;;;;22.36;20.45;97313.16;4996297;28;1911;-75
2023/01/31 08:41:01;;;;;;;;;;;;;;;22.10;20.38;97309.72;4996493;28;1079;-75
2023/01/31 08:43:27;;;;;;;;;;;;;;;22.06;20.37;97318.34;4997222;28;977;-75
2023/01/31 08:45:52;;;;;;;;;;;;;;;22.03;20.53;97316.47;4997786;28;1148;-75
2023/01/31 08:48:18;;;;;;;;;;;;;;;22.74;19.76;97315.66;4997241;28;1082;-76
2023/01/31 08:50:43;;;;;;;;;;;;;;;22.71;19.86;97319.41;4997320;28;961;-75
2023/01/31 08:53:08;;;;;;;;;;;;;;;22.38;20.19;97312.69;4997059;28;944;-75
2023/01/31 08:55:34;;;;;;;;;;;;;;;21.91;20.63;97319.38;4997747;28;1094;-75
2023/01/31 08:58:00;;;;;;;;;;;;;;;22.47;19.89;97309.88;4996086;28;940;-75
2023/01/31 09:00:26;;;;;;;;;;;;;;;22.90;19.31;97327.97;4997463;28;1918;-75
2023/01/31 09:02:52;;;;;;;;;;;;;;;22.70;19.85;97317.84;4997692;28;904;-75
2023/01/31 09:05:17;;;;;;;;;;;;;;;22.39;20.08;97325.63;4997497;28;1007;-76
2023/01/31 09:07:43;;;;;;;;;;;;;;;22.07;20.21;97327.63;4997304;28;974;-75
2023/01/31 09:10:08;;;;;;;;;;;;;;;22.68;19.59;97337.34;4997074;28;974;-76
2023/01/31 09:12:34;;;;;;;;;;;;;;;22.07;20.32;97334.13;4995227;28;948;-75
2023/01/31 09:15:00;;;;;;;;;;;;;;;22.51;19.85;97333.22;4997103;28;954;-75
2023/01/31 09:17:25;;;;;;;;;;;;;;;22.11;20.40;97333.97;4996023;28;989;-76
2023/01/31 09:19:51;;;;;;;;;;;;;;;22.78;19.70;97330.44;4996899;28;1987;-76
2023/01/31 09:22:16;;;;;;;;;;;;;;;22.77;19.56;97328.88;4996810;28;994;-76
2023/01/31 09:24:42;;;;;;;;;;;;;;;22.68;19.65;97325.22;4996980;28;990;-75
2023/01/31 09:27:07;;;;;;;;;;;;;;;22.50;19.89;97326.75;4997201;28;854;-76
2023/01/31 09:29:33;;;;;;;;;;;;;;;22.30;20.04;97332.81;4997304;28;1004;-77
2023/01/31 09:31:58;;;;;;;;;;;;;;;22.21;20.19;97329.94;4996921;28;1078;-76
2023/01/31 09:34:24;;;;;;;;;;;;;;;22.78;19.72;97333.28;4996732;28;940;-76
2023/01/31 09:36:49;;;;;;;;;;;;;;;22.62;19.99;97328.69;4997082;28;949;-76
2023/01/31 09:39:15;;;;;;;;;;;;;;;22.60;19.82;97319.06;4996718;28;1919;-76
2023/01/31 09:42:00;;;;;;;;;;;;;;;22.75;19.62;97331.41;4997093;28;918;-76
2023/01/31 09:44:34;;;;;;;;;;;;;;;22.86;19.77;97330.94;4996267;28;1001;-76
2023/01/31 09:47:02;;;;;;;;;;;;;;;22.53;19.81;97336.34;4995581;28;907;-76
2023/01/31 09:49:30;;;;;;;;;;;;;;;22.24;20.26;97331.84;4996432;28;1100;-76
2023/01/31 09:51:59;;;;;;;;;;;;;;;23.01;19.28;97331.94;4995471;28;975;-76
2023/01/31 09:54:28;;;;;;;;;;;;;;;22.32;20.02;97327.47;4995577;28;1068;-76
2023/01/31 09:56:59;;;;;;;;;;;;;;;21.73;20.56;97326.50;4996060;28;1119;-76
2023/01/31 09:59:27;;;;;;;;;;;;;;;22.43;20.10;97329.06;4995399;28;1985;-76
2023/01/31 10:01:58;;;;;;;;;;;;;;;22.68;19.70;97326.00;4995401;28;971;-77
2023/01/31 10:04:42;;;;;;;;;;;;;;;22.51;19.89;97328.31;4995586;28;1121;-77
2023/01/31 10:07:14;;;;;;;;;;;;;;;22.47;19.98;97321.22;4995496;28;1090;-77
2023/01/31 10:09:47;;;;;;;;;;;;;;;22.21;20.05;97331.97;4996771;28;979;-77
2023/01/31 10:12:13;;;;;;;;;;;;;;;22.30;19.91;97330.00;4995808;28;954;-77
2023/01/31 10:14:46;;;;;;;;;;;;;;;22.28;20.03;97321.16;4996650;28;974;-76
2023/01/31 10:17:12;;;;;;;;;;;;;;;22.39;20.31;97317.13;5013270;28;1905;-77
2023/01/31 10:19:46;;;;;;;;;;;;;;;22.44;19.98;97313.66;5015768;28;1973;-77
2023/01/31 10:22:15;;;;;;;;;;;;;;;22.57;19.62;97312.28;5016359;28;1020;-77
2023/01/31 10:25:02;;;;;;;;;;;;;;;21.92;20.73;97316.09;4974579;28;1025;-76
2023/01/31 10:27:35;;;;;;;;;;;;;;;22.45;19.87;97312.41;4958826;28;1092;-76
2023/01/31 10:30:02;;;;;;;;;;;;;;;22.40;19.80;97307.34;4974567;28;1053;-77
2023/01/31 10:32:29;;;;;;;;;;;;;;;22.79;19.50;97306.50;4955222;29;1057;-78
2023/01/31 10:34:54;;;;;;;;;;;;;;;22.47;19.89;97301.38;4955291;29;966;-77
2023/01/31 10:37:40;;;;;;;;;;;;;;;22.50;19.79;97297.63;4955173;28;915;-76
2023/01/31 10:40:12;;;;;;;;;;;;;;;22.07;20.04;97305.78;4955216;29;1985;-76
2023/01/31 10:42:38;;;;;;;;;;;;;;;22.28;20.10;97304.16;4955469;28;922;-76
2023/01/31 10:45:16;;;;;;;;;;;;;;;22.60;19.67;97299.22;4955100;29;1017;-77
2023/01/31 10:47:44;;;;;;;;;;;;;;;22.66;19.42;97299.41;4955034;28;948;-77
2023/01/31 10:50:16;;;;;;;;;;;;;;;22.82;19.23;97302.72;4957799;29;1017;-76
2023/01/31 10:53:00;;;;;;;;;;;;;;;22.82;19.44;97302.72;4974514;28;1059;-77
2023/01/31 10:55:32;;;;;;;;;;;;;;;22.84;19.34;97293.75;4966072;28;1089;-77
2023/01/31 10:57:57;;;;;;;;;;;;;;;22.84;19.54;97294.53;4977959;28;1025;-77
2023/01/31 11:00:25;;;;;;;;;;;;;;;22.91;19.46;97295.53;4977695;28;1995;-77
2023/01/31 11:02:51;;;;;;;;;;;;;;;22.48;19.98;97294.44;4977932;28;874;-76
2023/01/31 11:05:20;;;;;;;;;;;;;;;22.34;20.08;97302.28;4977795;28;971;-77
2023/01/31 11:07:45;;;;;;;;;;;;;;;22.54;19.96;97310.41;4977655;28;986;-77
2023/01/31 11:10:21;;;;;;;;;;;;;;;22.51;19.73;97299.19;5002121;28;984;-77
2023/01/31 11:13:00;;;;;;;;;;;;;;;22.36;20.05;97301.81;5016557;28;949;-77
2023/01/31 11:15:27;;;;;;;;;;;;;;;22.42;19.87;97308.44;5016940;28;975;-77
2023/01/31 11:17:52;;;;;;;;;;;;;;;22.56;19.76;97312.75;5016480;28;914;-77
2023/01/31 11:20:20;;;;;;;;;;;;;;;22.53;19.71;97305.16;5016518;28;2057;-77
2023/01/31 11:22:45;;;;;;;;;;;;;;;22.48;19.65;97294.44;5016516;28;1015;-77
2023/01/31 11:25:14;;;;;;;;;;;;;;;22.87;19.38;97287.91;5016535;28;962;-77
2023/01/31 11:27:41;;;;;;;;;;;;;;;22.34;19.69;97302.28;5000102;28;1323;-76
2023/01/31 11:30:06;;;;;;;;;;;;;;;22.50;19.69;97297.63;5017577;28;959;-76
2023/01/31 11:32:34;;;;;;;;;;;;;;;22.74;19.60;97292.16;5001489;28;1027;-76
2023/01/31 11:35:02;;;;;;;;;;;;;;;22.76;19.54;97296.09;5000914;28;905;-77
2023/01/31 11:37:28;;;;;;;;;;;;;;;22.33;20.23;97295.06;5001491;28;976;-77
2023/01/31 11:40:01;;;;;;;;;;;;;;;22.87;19.50;97290.75;5018123;28;1903;-77
2023/01/31 11:42:26;;;;;;;;;;;;;;;22.67;19.49;97295.28;5018511;28;921;-77
2023/01/31 11:44:59;;;;;;;;;;;;;;;22.80;19.10;97288.25;5018433;28;946;-77
2023/01/31 11:47:32;;;;;;;;;;;;;;;22.71;19.51;97291.06;4976833;28;904;-77
2023/01/31 11:49:57;;;;;;;;;;;;;;;22.00;20.27;97282.59;4960617;28;881;-77
2023/01/31 11:52:27;;;;;;;;;;;;;;;22.62;19.53;97271.19;4976764;28;1004;-76
2023/01/31 11:54:53;;;;;;;;;;;;;;;22.69;19.59;97275.75;4976913;28;1061;-77
2023/01/31 11:57:22;;;;;;;;;;;;;;;22.60;19.61;97268.03;4961016;28;980;-76
2023/01/31 11:59:48;;;;;;;;;;;;;;;22.57;19.76;97269.75;4976500;28;1894;-76
2023/01/31 12:02:20;;;;;;;;;;;;;;;22.84;19.53;97274.66;4960818;28;1030;-76
2023/01/31 12:04:45;;;;;;;;;;;;;;;22.79;19.31;97263.94;4960803;28;942;-77
2023/01/31 12:07:31;;;;;;;;;;;;;;;22.40;19.84;97271.28;4976541;28;958;-76
2023/01/31 12:09:56;;;;;;;;;;;;;;;22.53;19.50;97262.66;4960334;28;977;-77
2023/01/31 12:12:23;;;;;;;;;;;;;;;22.00;20.36;97265.59;4960664;28;1096;-77
2023/01/31 12:14:49;;;;;;;;;;;;;;;22.84;19.62;97277.50;4976503;28;993;-79
2023/01/31 12:17:15;;;;;;;;;;;;;;;22.91;19.22;97270.78;4977889;28;1032;-76
2023/01/31 12:19:59;;;;;;;;;;;;;;;22.62;19.49;97266.28;5018037;28;1971;-77
2023/01/31 12:22:33;;;;;;;;;;;;;;;22.64;19.48;97274.34;5017945;28;1002;-77
2023/01/31 12:25:17;;;;;;;;;;;;;;;22.67;19.61;97273.41;5000088;28;1019;-77
2023/01/31 12:27:46;;;;;;;;;;;;;;;22.79;19.57;97275.28;5000701;28;891;-77
2023/01/31 12:30:15;;;;;;;;;;;;;;;22.46;19.85;97291.31;4983958;28;909;-77
2023/01/31 12:32:40;;;;;;;;;;;;;;;22.20;20.27;97280.19;5017260;28;989;-77
2023/01/31 12:35:15;;;;;;;;;;;;;;;22.40;19.89;97293.19;5017350;28;945;-77
2023/01/31 12:37:41;;;;;;;;;;;;;;;22.10;20.05;97292.72;5016160;28;1330;-77
2023/01/31 12:40:20;;;;;;;;;;;;;;;22.35;20.10;97298.19;5017405;28;1906;-77
2023/01/31 12:43:11;;;;;;;;;;;;;;;22.60;19.70;97296.38;5016002;28;1258;-77
2023/01/31 12:45:55;;;;;;;;;;;;;;;22.25;19.90;97298.63;4999902;28;1006;-76
2023/01/31 12:48:46;;;;;;;;;;;;;;;22.26;20.15;97297.38;5017208;28;957;-77
2023/01/31 12:51:16;;;;;;;;;;;;;;;22.53;19.92;97297.44;4967592;28;1258;-77
2023/01/31 12:53:59;;;;;;;;;;;;;;;22.61;19.42;97297.97;4999884;28;896;-77
2023/01/31 12:56:29;;;;;;;;;;;;;;;21.79;19.96;97219.88;5017014;28;986;-77
2023/01/31 12:59:05;;;;;;;;;;;;;;;22.08;20.27;97301.69;4983342;28;1910;-77
2023/01/31 13:01:33;;;;;;;;;;;;;;;22.37;19.88;97300.56;4999430;28;891;-77
2023/01/31 13:03:58;;;;;;;;;;;;;;;22.60;19.54;97308.53;4999394;28;883;-77
2023/01/31 13:06:29;;;;;;;;;;;;;;;22.23;20.23;97313.28;5016870;28;1054;-77
2023/01/31 13:09:11;;;;;;;;;;;;;;;22.57;19.64;97320.00;4999488;28;874;-76
2023/01/31 13:11:38;;;;;;;;;;;;;;;22.88;19.27;97323.56;4998993;28;942;-77
2023/01/31 13:14:04;;;;;;;;;;;;;;;22.23;19.84;97324.63;4999516;28;894;-77